Airfield :
LOGIN :

Register | Disclaimer

   EN    FR    IT 

 










Legend :    VFR   Marginal VFR   IFR   Intensive IFR   Very Intensive IFR
Visi :
Ceiling :
>= 8 km
>= 3000ft
5 to 8 km
1000 to 3000 ft
1500m to 5 km
500 to 1000 ft
800 to 1500m
200 to 500 ft
< 800m
< 200 ft
Symbols :   Thunderstorms  Fog  Heavy snow  Heavy precipitations  Wind > 20 kt
SIGMETs :     Misc.  Thunderstorms  Icing  Turbulence  Mountain Waves  Volcanic Ashes







- Airport Elevation : 191 ft
- IATA code : RNB


ESDF - Ronneby

CURRENT METAR :
  • 222220Z AUTO 25003KT 9999 OVC090/// 13/07 Q1011

EXPIRED METARs :
  • 222150Z AUTO VRB02KT 9999 BKN092/// 13/06 Q1011
  • 222120Z AUTO 23002KT 9999 FEW120/// 12/06 Q1011
  • 222050Z AUTO VRB01KT 9999 FEW052/// SCT094/// BKN120/// 14/06 Q1011
  • 222020Z AUTO 29003KT 260V320 9999 FEW078/// SCT130/// 14/06 Q1011
  • 221950Z AUTO 30005KT 9999 FEW110/// SCT130/// 14/05 Q1011
  • 221920Z AUTO 29005KT 9999 FEW080/// OVC110/// 15/05 Q1011

Expired Forecast.
No reported NOTAMs for that airfield.



MET'MAP, your aeronautical weather chart ! - Copyright ORBIFLY December 2007 - Disclaimer

ORBIFLY MET'MAP TEAM :

Programming & Development : Alexandra Zaïnal
Concept & Development : Baudouin d'Aumeries
Co-Development & Prog : Marc-Olivier Méhu
Technical & hardware support : Manuel Goepfert

Contact : metmap@orbifly.com




SOURCES & CREDITS :

   NOAA